createdAt,value
2023-02-19T00:01:14.637Z,5.88
2023-02-19T00:03:42.601Z,4.47
2023-02-19T00:06:11.375Z,5.22
2023-02-19T00:08:38.943Z,5.07
2023-02-19T00:11:12.851Z,4.45
2023-02-19T00:13:41.619Z,4.57
2023-02-19T00:16:09.723Z,4.53
2023-02-19T00:18:36.461Z,5.15
2023-02-19T00:21:04.030Z,4.83
2023-02-19T00:23:31.187Z,5.25
2023-02-19T00:26:17.145Z,3.83
2023-02-19T00:28:45.349Z,5.32
2023-02-19T00:31:21.489Z,3.85
2023-02-19T00:33:49.503Z,4.30
2023-02-19T00:36:16.571Z,3.55
2023-02-19T00:38:43.950Z,4.43
2023-02-19T00:41:21.362Z,5.20
2023-02-19T00:43:54.909Z,4.55
2023-02-19T00:46:30.330Z,3.60
2023-02-19T00:48:58.149Z,3.85
2023-02-19T00:51:27.205Z,4.57
2023-02-19T00:53:54.085Z,4.03
2023-02-19T00:56:21.069Z,3.90
2023-02-19T00:58:48.202Z,4.50
2023-02-19T01:01:15.472Z,3.63
2023-02-19T01:03:42.086Z,6.65
2023-02-19T01:06:10.967Z,4.75
2023-02-19T01:08:37.931Z,4.25
2023-02-19T01:11:06.212Z,5.40
2023-02-19T01:13:33.562Z,5.60
2023-02-19T01:16:15.151Z,4.40
2023-02-19T01:18:42.505Z,4.05
2023-02-19T01:21:13.289Z,4.28
2023-02-19T01:23:40.182Z,4.10
2023-02-19T01:26:09.486Z,4.18
2023-02-19T01:28:35.968Z,4.18
2023-02-19T01:31:08.670Z,4.30
2023-02-19T01:33:35.376Z,5.57
2023-02-19T01:36:06.183Z,3.60
2023-02-19T01:38:33.305Z,4.00
2023-02-19T01:41:05.034Z,3.50
2023-02-19T01:43:54.744Z,3.45
2023-02-19T01:46:21.382Z,4.40
2023-02-19T01:48:47.861Z,3.50
2023-02-19T01:51:19.980Z,3.80
2023-02-19T01:53:52.255Z,4.05
2023-02-19T01:56:21.043Z,4.20
2023-02-19T01:58:47.819Z,3.60
2023-02-19T02:01:14.524Z,3.57
2023-02-19T02:03:44.968Z,3.63
2023-02-19T02:06:15.612Z,3.20
2023-02-19T02:09:00.656Z,3.90
2023-02-19T02:11:27.762Z,4.47
2023-02-19T02:13:54.976Z,3.83
2023-02-19T02:16:39.726Z,3.83
2023-02-19T02:19:16.588Z,3.72
2023-02-19T02:22:05.628Z,4.18
2023-02-19T02:24:50.788Z,3.30
2023-02-19T02:27:29.340Z,2.90
2023-02-19T02:30:01.901Z,3.13
2023-02-19T02:32:37.538Z,3.17
2023-02-19T02:35:10.069Z,3.38
2023-02-19T02:37:41.419Z,3.47
2023-02-19T02:40:10.856Z,3.20
2023-02-19T02:42:39.983Z,2.92
2023-02-19T02:45:37.232Z,3.33
2023-02-19T02:48:27.098Z,3.08
2023-02-19T02:51:13.465Z,3.05
2023-02-19T02:53:58.590Z,3.40
2023-02-19T02:56:26.439Z,2.95
2023-02-19T02:58:55.350Z,3.13
2023-02-19T03:01:43.140Z,4.13
2023-02-19T03:04:30.299Z,3.67
2023-02-19T03:07:00.370Z,2.90
2023-02-19T03:09:40.585Z,2.95
2023-02-19T03:12:31.754Z,3.33
2023-02-19T03:15:21.359Z,3.20
2023-02-19T03:18:19.484Z,2.70
2023-02-19T03:20:51.615Z,3.00
2023-02-19T03:23:20.577Z,2.92
2023-02-19T03:26:06.167Z,3.30
2023-02-19T03:28:54.708Z,2.85
2023-02-19T03:31:25.004Z,3.20
2023-02-19T03:33:56.047Z,3.20
2023-02-19T03:36:26.402Z,3.33
2023-02-19T03:39:04.377Z,4.38
2023-02-19T03:41:42.592Z,2.60
2023-02-19T03:44:27.243Z,2.53
2023-02-19T03:47:03.363Z,2.33
2023-02-19T03:49:37.240Z,2.95
2023-02-19T03:52:21.678Z,2.50
2023-02-19T03:55:17.869Z,2.72
2023-02-19T03:57:51.594Z,2.40
2023-02-19T04:00:26.672Z,3.07
2023-02-19T04:03:02.124Z,3.28
2023-02-19T04:05:37.246Z,2.63
2023-02-19T04:08:14.634Z,2.20
2023-02-19T04:10:42.101Z,2.20
2023-02-19T04:13:22.466Z,2.20
2023-02-19T04:15:51.963Z,3.05
2023-02-19T04:18:22.857Z,2.33
2023-02-19T04:20:50.480Z,2.20
2023-02-19T04:23:22.960Z,2.53
2023-02-19T04:25:54.697Z,3.43
2023-02-19T04:28:21.740Z,2.50
2023-02-19T04:30:48.322Z,3.22
2023-02-19T04:33:14.922Z,2.72
2023-02-19T04:35:41.359Z,2.70
2023-02-19T04:38:08.248Z,3.37
2023-02-19T04:40:34.690Z,3.03
2023-02-19T04:43:01.128Z,2.80
2023-02-19T04:45:27.665Z,2.75
2023-02-19T04:47:54.127Z,3.15
2023-02-19T04:50:20.624Z,4.00
2023-02-19T04:52:47.065Z,3.00
2023-02-19T04:55:13.584Z,4.05
2023-02-19T04:57:39.985Z,3.88
2023-02-19T05:00:08.063Z,5.13
2023-02-19T05:02:34.674Z,3.00
2023-02-19T05:05:01.260Z,3.17
2023-02-19T05:07:27.677Z,4.47
2023-02-19T05:09:54.104Z,4.53
2023-02-19T05:12:20.944Z,3.78
2023-02-19T05:14:47.610Z,3.80
2023-02-19T05:17:14.080Z,4.60
2023-02-19T05:19:40.487Z,3.83
2023-02-19T05:22:06.860Z,3.45
2023-02-19T05:24:33.330Z,4.63
2023-02-19T05:26:59.830Z,5.03
2023-02-19T05:29:26.408Z,3.80
2023-02-19T05:31:52.967Z,3.50
2023-02-19T05:34:19.432Z,3.60
2023-02-19T05:36:45.948Z,4.28
2023-02-19T05:39:12.557Z,6.33
2023-02-19T05:41:39.384Z,4.25
2023-02-19T05:44:05.900Z,3.80
2023-02-19T05:46:32.595Z,4.05
2023-02-19T05:48:59.349Z,4.13
2023-02-19T05:51:27.308Z,3.37
2023-02-19T05:53:54.010Z,4.55
2023-02-19T05:56:33.989Z,5.63
2023-02-19T05:59:06.807Z,5.28
2023-02-19T06:01:35.242Z,4.30
2023-02-19T06:04:01.739Z,5.83
2023-02-19T06:06:28.588Z,5.38
2023-02-19T06:08:55.123Z,6.63
2023-02-19T06:11:21.630Z,4.80
2023-02-19T06:13:50.160Z,4.68
2023-02-19T06:16:17.768Z,4.73
2023-02-19T06:18:45.222Z,9.13
2023-02-19T06:21:12.715Z,4.35
2023-02-19T06:23:39.987Z,5.43
2023-02-19T06:26:13.681Z,6.80
2023-02-19T06:28:41.463Z,5.30
2023-02-19T06:31:09.871Z,5.30
2023-02-19T06:33:40.392Z,6.45
2023-02-19T06:36:12.568Z,7.20
2023-02-19T06:38:39.374Z,9.30
2023-02-19T06:41:07.032Z,8.00
2023-02-19T06:43:34.536Z,8.00
2023-02-19T06:46:02.757Z,6.10
2023-02-19T06:48:30.500Z,6.43
2023-02-19T06:50:56.999Z,6.85
2023-02-19T06:53:23.790Z,8.60
2023-02-19T06:56:05.552Z,8.52
2023-02-19T06:58:33.413Z,8.60
2023-02-19T07:01:00.354Z,6.18
2023-02-19T07:03:26.894Z,6.00
2023-02-19T07:05:54.437Z,6.70
2023-02-19T07:08:21.214Z,7.88
2023-02-19T07:10:55.705Z,6.03
2023-02-19T07:13:22.902Z,6.45
2023-02-19T07:15:51.941Z,6.63
2023-02-19T07:18:19.272Z,9.33
2023-02-19T07:20:45.719Z,5.97
2023-02-19T07:23:12.223Z,6.47
2023-02-19T07:25:39.266Z,9.02
2023-02-19T07:28:06.450Z,7.72
2023-02-19T07:30:32.950Z,8.13
2023-02-19T07:32:59.428Z,11.40
2023-02-19T07:35:26.051Z,7.72
2023-02-19T07:37:52.462Z,8.65
2023-02-19T07:40:18.943Z,7.70
2023-02-19T07:42:45.541Z,7.03
2023-02-19T07:45:11.953Z,8.20
2023-02-19T07:47:38.372Z,8.25
2023-02-19T07:50:05.108Z,9.48
2023-02-19T07:52:33.986Z,9.60
2023-02-19T07:55:00.412Z,6.50
2023-02-19T07:57:31.292Z,9.32
2023-02-19T07:59:58.840Z,8.95
2023-02-19T08:02:43.593Z,9.32
2023-02-19T08:05:10.570Z,7.45
2023-02-19T08:07:37.667Z,10.97
2023-02-19T08:10:23.748Z,9.73
2023-02-19T08:13:16.392Z,8.88
2023-02-19T08:15:43.110Z,8.43
2023-02-19T08:18:10.548Z,8.48
2023-02-19T08:20:37.313Z,8.33
2023-02-19T08:23:03.992Z,7.57
2023-02-19T08:25:30.633Z,7.82
2023-02-19T08:27:57.097Z,8.57
2023-02-19T08:30:24.332Z,7.70
2023-02-19T08:32:50.923Z,8.23
2023-02-19T08:35:17.708Z,23.90
2023-02-19T08:37:44.148Z,15.10
2023-02-19T08:40:11.696Z,8.32
2023-02-19T08:42:38.311Z,14.57
2023-02-19T08:45:05.628Z,12.00
2023-02-19T08:47:34.190Z,10.52
2023-02-19T08:50:00.608Z,11.45
2023-02-19T08:52:27.054Z,10.35
2023-02-19T08:54:53.657Z,9.73
2023-02-19T08:57:20.235Z,11.17
2023-02-19T08:59:46.652Z,12.38
2023-02-19T09:02:13.491Z,12.82
2023-02-19T09:04:40.375Z,11.45
2023-02-19T09:07:07.843Z,9.23
2023-02-19T09:09:37.216Z,11.33
2023-02-19T09:12:08.450Z,13.88
2023-02-19T09:14:35.764Z,10.48
2023-02-19T09:17:03.394Z,11.32
2023-02-19T09:19:29.851Z,8.73
2023-02-19T09:21:56.610Z,9.73
2023-02-19T09:24:23.685Z,11.55
2023-02-19T09:26:54.548Z,15.82
2023-02-19T09:29:22.412Z,14.05
2023-02-19T09:31:48.969Z,10.82
2023-02-19T09:34:15.609Z,9.17
2023-02-19T09:36:42.156Z,11.00
2023-02-19T09:39:10.377Z,10.75
2023-02-19T09:41:46.437Z,10.48
2023-02-19T09:44:18.260Z,10.35
2023-02-19T09:46:49.932Z,8.10
2023-02-19T09:49:21.218Z,9.23
2023-02-19T09:51:56.379Z,9.77
2023-02-19T09:54:26.550Z,11.43
2023-02-19T09:56:57.241Z,8.40
2023-02-19T09:59:27.269Z,7.40
2023-02-19T10:02:04.291Z,10.98
2023-02-19T10:04:30.745Z,11.73
2023-02-19T10:07:03.375Z,6.40
2023-02-19T10:09:30.933Z,7.22
2023-02-19T10:11:58.753Z,7.67
2023-02-19T10:14:36.692Z,7.13
2023-02-19T10:17:06.015Z,6.22
2023-02-19T10:19:34.587Z,9.02
2023-02-19T10:22:04.211Z,7.65
2023-02-19T10:24:33.025Z,7.23
2023-02-19T10:26:59.622Z,9.68
2023-02-19T10:29:27.264Z,10.18
2023-02-19T10:32:24.015Z,9.20
2023-02-19T10:35:09.385Z,9.02
2023-02-19T10:37:44.054Z,9.23
2023-02-19T10:40:19.701Z,10.07
2023-02-19T10:42:52.039Z,7.95
2023-02-19T10:45:24.463Z,8.38
2023-02-19T10:47:52.886Z,8.93
2023-02-19T10:50:30.112Z,6.80
2023-02-19T10:52:58.857Z,8.35
2023-02-19T10:55:36.780Z,9.07
2023-02-19T10:58:24.389Z,9.43
2023-02-19T11:01:12.244Z,8.23
2023-02-19T11:03:39.107Z,9.70
2023-02-19T11:06:11.314Z,8.55
2023-02-19T11:08:48.421Z,11.63
2023-02-19T11:11:32.249Z,11.23
2023-02-19T11:14:02.656Z,10.48
2023-02-19T11:16:42.074Z,13.00
2023-02-19T11:19:29.241Z,14.40
2023-02-19T11:21:56.721Z,15.75
2023-02-19T11:24:30.979Z,10.68
2023-02-19T11:27:02.997Z,13.82
2023-02-19T11:29:34.616Z,11.73
2023-02-19T11:32:26.125Z,11.23
2023-02-19T11:35:13.287Z,11.38
2023-02-19T11:38:03.031Z,14.02
2023-02-19T11:41:00.405Z,12.93
2023-02-19T11:43:47.597Z,14.67
2023-02-19T11:46:39.239Z,15.15
2023-02-19T11:49:37.417Z,16.45
2023-02-19T11:52:03.800Z,14.93
2023-02-19T11:54:49.286Z,12.43
2023-02-19T11:57:27.644Z,12.87
2023-02-19T11:59:57.037Z,14.02
2023-02-19T12:02:51.306Z,11.43
2023-02-19T12:05:33.824Z,11.50
2023-02-19T12:08:34.542Z,12.85
2023-02-19T12:11:32.099Z,13.27
2023-02-19T12:14:23.345Z,12.85
2023-02-19T12:17:01.803Z,10.02
2023-02-19T12:19:44.828Z,12.98
2023-02-19T12:22:31.302Z,11.73
2023-02-19T12:25:23.796Z,14.30
2023-02-19T12:28:04.939Z,10.77
2023-02-19T12:30:59.774Z,6.93
2023-02-19T12:34:16.176Z,8.30
2023-02-19T12:36:50.839Z,10.00
2023-02-19T12:39:29.238Z,8.77
2023-02-19T12:42:36.057Z,11.75
2023-02-19T12:45:17.732Z,14.02
2023-02-19T12:47:53.232Z,9.38
2023-02-19T12:50:25.336Z,9.82
2023-02-19T12:53:23.425Z,9.60
2023-02-19T12:55:54.897Z,8.55
2023-02-19T12:58:32.549Z,8.98
2023-02-19T13:00:59.979Z,8.93
2023-02-19T13:03:34.825Z,9.35
2023-02-19T13:06:45.434Z,10.07
2023-02-19T13:09:15.920Z,8.35
2023-02-19T13:11:56.252Z,15.68
2023-02-19T13:14:28.384Z,8.13
2023-02-19T13:17:02.793Z,10.20
2023-02-19T13:19:33.256Z,7.77
2023-02-19T13:23:08.472Z,13.98
2023-02-19T13:26:20.749Z,8.98
2023-02-19T13:29:17.960Z,9.88
2023-02-19T13:32:03.367Z,9.13
2023-02-19T13:34:48.770Z,10.00
2023-02-19T13:37:19.254Z,6.65
2023-02-19T13:39:52.916Z,7.57
2023-02-19T13:45:37.441Z,6.05
2023-02-19T13:48:28.294Z,7.00
2023-02-19T13:51:16.756Z,8.68
2023-02-19T13:53:47.920Z,6.95
2023-02-19T13:56:31.917Z,14.98
2023-02-19T13:59:01.368Z,15.30
2023-02-19T14:01:56.975Z,7.17
2023-02-19T14:04:40.151Z,6.53
2023-02-19T14:07:06.612Z,7.00
2023-02-19T14:09:36.076Z,6.97
2023-02-19T14:12:14.331Z,5.88
2023-02-19T14:14:49.364Z,10.13
2023-02-19T14:17:45.573Z,8.95
2023-02-19T14:20:14.750Z,6.47
2023-02-19T14:22:55.451Z,7.63
2023-02-19T14:25:31.016Z,7.95
2023-02-19T14:28:29.931Z,9.30
2023-02-19T14:31:34.080Z,7.88
2023-02-19T14:34:04.897Z,11.35
2023-02-19T14:36:48.553Z,19.38
2023-02-19T14:39:41.139Z,6.80
2023-02-19T14:42:22.702Z,11.40
2023-02-19T14:44:57.239Z,18.10
2023-02-19T14:47:29.412Z,8.20
2023-02-19T14:50:08.625Z,4.97
2023-02-19T14:52:57.550Z,5.53
2023-02-19T14:55:32.808Z,8.50
2023-02-19T14:58:06.137Z,7.38
2023-02-19T15:00:41.069Z,7.07
2023-02-19T15:03:25.762Z,9.00
2023-02-19T15:06:00.520Z,7.00
2023-02-19T15:08:52.968Z,3.83
2023-02-19T15:11:22.601Z,4.18
2023-02-19T15:14:16.931Z,6.03
2023-02-19T15:17:15.907Z,9.45
2023-02-19T15:19:48.854Z,9.13
2023-02-19T15:22:30.680Z,5.63
2023-02-19T15:25:03.317Z,5.32
2023-02-19T15:27:30.063Z,5.07
2023-02-19T15:29:59.907Z,5.90
2023-02-19T15:32:33.085Z,5.53
2023-02-19T15:35:26.526Z,4.63
2023-02-19T15:37:55.023Z,4.10
2023-02-19T15:40:30.555Z,4.72
2023-02-19T15:43:03.494Z,5.00
2023-02-19T15:45:41.639Z,5.43
2023-02-19T15:48:46.931Z,5.50
2023-02-19T15:51:57.916Z,14.40
2023-02-19T15:54:30.857Z,9.40
2023-02-19T15:57:07.065Z,7.70
2023-02-19T16:00:08.756Z,11.13
2023-02-19T16:02:36.053Z,14.40
2023-02-19T16:05:15.543Z,7.22
2023-02-19T16:07:45.035Z,7.28
2023-02-19T16:10:26.501Z,6.30
2023-02-19T16:13:08.194Z,6.38
2023-02-19T16:15:39.969Z,5.57
2023-02-19T16:18:33.403Z,6.18
2023-02-19T16:21:02.808Z,5.88
2023-02-19T16:23:32.767Z,10.20
2023-02-19T16:26:03.132Z,33.17
2023-02-19T16:28:50.164Z,18.63
2023-02-19T16:31:35.371Z,12.80
2023-02-19T16:34:20.745Z,10.27
2023-02-19T16:36:50.567Z,6.82
2023-02-19T16:39:18.975Z,7.97
2023-02-19T16:41:48.176Z,9.00
2023-02-19T16:44:20.628Z,6.25
2023-02-19T16:46:51.884Z,7.15
2023-02-19T16:49:18.901Z,6.18
2023-02-19T16:51:46.884Z,5.63
2023-02-19T16:54:13.674Z,7.13
2023-02-19T16:56:40.169Z,8.20
2023-02-19T16:59:07.609Z,8.30
2023-02-19T17:01:36.024Z,7.85
2023-02-19T17:04:09.482Z,12.27
2023-02-19T17:06:37.802Z,11.67
2023-02-19T17:09:06.454Z,8.18
2023-02-19T17:11:33.098Z,6.25
2023-02-19T17:13:59.578Z,7.70
2023-02-19T17:16:28.516Z,7.88
2023-02-19T17:18:55.594Z,7.90
2023-02-19T17:21:27.980Z,8.05
2023-02-19T17:23:54.572Z,7.25
2023-02-19T17:26:28.015Z,6.05
2023-02-19T17:29:02.378Z,6.90
2023-02-19T17:31:29.285Z,16.03
2023-02-19T17:33:56.189Z,10.90
2023-02-19T17:36:26.843Z,8.32
2023-02-19T17:38:54.185Z,13.30
2023-02-19T17:41:20.672Z,11.38
2023-02-19T17:43:47.587Z,11.30
2023-02-19T17:46:23.844Z,70.75
2023-02-19T17:48:50.807Z,20.27
2023-02-19T17:51:17.425Z,21.92
2023-02-19T17:53:46.610Z,11.80
2023-02-19T17:56:22.754Z,13.10
2023-02-19T17:58:49.254Z,9.73
2023-02-19T18:01:15.955Z,12.65
2023-02-19T18:03:42.736Z,9.73
2023-02-19T18:06:09.316Z,11.15
2023-02-19T18:08:35.910Z,11.90
2023-02-19T18:11:03.003Z,13.45
2023-02-19T18:13:29.821Z,11.77
2023-02-19T18:15:56.256Z,10.45
2023-02-19T18:18:25.545Z,14.63
2023-02-19T18:20:52.017Z,10.87
2023-02-19T18:23:20.546Z,8.38
2023-02-19T18:25:47.121Z,11.10
2023-02-19T18:28:14.904Z,14.25
2023-02-19T18:30:41.442Z,8.85
2023-02-19T18:33:10.989Z,9.07
2023-02-19T18:35:38.426Z,11.68
2023-02-19T18:38:05.526Z,10.40
2023-02-19T18:40:31.998Z,9.43
2023-02-19T18:42:58.787Z,9.43
2023-02-19T18:45:26.095Z,9.07
2023-02-19T18:47:52.632Z,12.20
2023-02-19T18:50:19.682Z,11.60
2023-02-19T18:52:46.369Z,10.23
2023-02-19T18:55:13.216Z,9.15
2023-02-19T18:57:39.780Z,10.57
2023-02-19T19:00:07.990Z,11.93
2023-02-19T19:02:48.234Z,10.13
2023-02-19T19:05:23.569Z,9.05
2023-02-19T19:07:51.829Z,8.88
2023-02-19T19:10:18.928Z,13.70
2023-02-19T19:12:45.645Z,10.15
2023-02-19T19:15:12.146Z,11.60
2023-02-19T19:17:40.559Z,11.85
2023-02-19T19:20:08.317Z,11.07
2023-02-19T19:22:34.693Z,10.53
2023-02-19T19:25:01.314Z,9.48
2023-02-19T19:27:27.709Z,9.95
2023-02-19T19:29:54.374Z,10.50
2023-02-19T19:32:20.902Z,9.25
2023-02-19T19:34:47.582Z,11.20
2023-02-19T19:37:14.042Z,8.48
2023-02-19T19:39:43.231Z,11.73
2023-02-19T19:42:11.845Z,10.73
2023-02-19T19:44:38.266Z,9.65
2023-02-19T19:47:04.841Z,10.37
2023-02-19T19:49:31.441Z,10.38
2023-02-19T19:52:01.009Z,20.67
2023-02-19T19:54:28.183Z,34.08
2023-02-19T19:56:54.695Z,11.75
2023-02-19T19:59:23.129Z,13.40
2023-02-19T20:02:01.783Z,9.43
2023-02-19T20:04:29.672Z,15.15
2023-02-19T20:06:58.600Z,14.98
2023-02-19T20:09:25.537Z,12.85
2023-02-19T20:11:53.763Z,14.57
2023-02-19T20:14:21.670Z,16.42
2023-02-19T20:16:48.438Z,14.98
2023-02-19T20:19:16.466Z,18.05
2023-02-19T20:21:47.283Z,19.70
2023-02-19T20:24:25.967Z,18.47
2023-02-19T20:27:02.455Z,15.43
2023-02-19T20:29:32.178Z,21.05
2023-02-19T20:32:00.213Z,17.08
2023-02-19T20:34:27.180Z,19.15
2023-02-19T20:36:54.117Z,14.03
2023-02-19T20:39:21.550Z,19.15
2023-02-19T20:41:51.889Z,17.17
2023-02-19T20:44:19.319Z,16.70
2023-02-19T20:46:48.096Z,14.65
2023-02-19T20:49:16.957Z,17.23
2023-02-19T20:51:44.566Z,14.35
2023-02-19T20:54:11.057Z,15.63
2023-02-19T20:56:37.536Z,14.73
2023-02-19T20:59:04.126Z,15.05
2023-02-19T21:01:30.556Z,13.70
2023-02-19T21:03:57.020Z,13.52
2023-02-19T21:06:24.659Z,13.93
2023-02-19T21:08:51.127Z,17.02
2023-02-19T21:11:17.781Z,14.75
2023-02-19T21:13:44.273Z,12.93
2023-02-19T21:16:11.147Z,13.20
2023-02-19T21:18:37.830Z,12.30
2023-02-19T21:21:04.351Z,14.18
2023-02-19T21:23:30.829Z,12.55
2023-02-19T21:25:57.351Z,13.00
2023-02-19T21:28:24.632Z,13.25
2023-02-19T21:30:51.160Z,14.73
2023-02-19T21:33:17.815Z,15.57
2023-02-19T21:35:45.208Z,10.68
2023-02-19T21:38:11.706Z,16.17
2023-02-19T21:40:38.253Z,12.23
2023-02-19T21:43:04.880Z,14.18
2023-02-19T21:45:31.393Z,15.50
2023-02-19T21:47:57.939Z,14.77
2023-02-19T21:50:24.479Z,12.27
2023-02-19T21:52:50.958Z,12.63
2023-02-19T21:55:17.403Z,14.63
2023-02-19T21:57:43.840Z,14.15
2023-02-19T22:00:10.831Z,13.05
2023-02-19T22:02:37.327Z,14.67
2023-02-19T22:05:03.988Z,15.25
2023-02-19T22:07:30.639Z,13.00
2023-02-19T22:09:57.050Z,14.35
2023-02-19T22:12:23.548Z,14.57
2023-02-19T22:14:50.003Z,17.63
2023-02-19T22:17:16.459Z,15.88
2023-02-19T22:19:42.916Z,15.43
2023-02-19T22:22:09.512Z,12.35
2023-02-19T22:24:35.984Z,13.60
2023-02-19T22:27:02.480Z,16.57
2023-02-19T22:29:28.983Z,17.42
2023-02-19T22:31:55.647Z,15.80
2023-02-19T22:34:22.319Z,15.75
2023-02-19T22:36:48.811Z,14.65
2023-02-19T22:39:26.628Z,16.00
2023-02-19T22:41:53.417Z,13.98
2023-02-19T22:44:19.958Z,14.82
2023-02-19T22:47:04.639Z,13.98
2023-02-19T22:49:31.248Z,18.02
2023-02-19T22:52:03.118Z,15.80
2023-02-19T22:54:29.570Z,14.15
2023-02-19T22:56:56.548Z,13.88
2023-02-19T22:59:23.225Z,15.30
2023-02-19T23:01:50.365Z,13.73
2023-02-19T23:04:17.117Z,14.53
2023-02-19T23:06:45.348Z,14.48
2023-02-19T23:09:18.329Z,15.88
2023-02-19T23:11:45.654Z,13.95
2023-02-19T23:14:13.500Z,14.60
2023-02-19T23:16:39.894Z,16.50
2023-02-19T23:19:09.466Z,13.90
2023-02-19T23:21:35.979Z,11.93
2023-02-19T23:24:02.387Z,12.15
2023-02-19T23:26:28.861Z,9.93
2023-02-19T23:28:55.805Z,9.60
2023-02-19T23:31:22.371Z,9.95
2023-02-19T23:33:49.190Z,11.43
2023-02-19T23:36:15.871Z,10.40
2023-02-19T23:38:46.809Z,10.18
2023-02-19T23:41:15.308Z,10.77
2023-02-19T23:43:42.023Z,9.90
2023-02-19T23:46:09.508Z,11.13
2023-02-19T23:48:36.020Z,10.93
2023-02-19T23:51:02.700Z,11.13
2023-02-19T23:53:29.232Z,9.20
2023-02-19T23:55:55.976Z,9.38
2023-02-19T23:58:22.459Z,10.18
